createdAt,value
2018-01-23T05:02:36.982Z,65.41
2018-01-23T05:17:48.875Z,65.89
2018-01-23T05:32:37.856Z,65.73
2018-01-23T05:47:36.425Z,66.34
2018-01-23T06:02:38.345Z,66.76
2018-01-23T06:17:36.270Z,66.08
2018-01-23T06:32:35.054Z,60.94
2018-01-23T06:47:38.766Z,57.66
2018-01-23T07:02:39.321Z,56.24
2018-01-23T07:17:36.496Z,56.03
2018-01-23T07:32:35.174Z,55.73
2018-01-23T07:47:36.675Z,56.08
2018-01-23T08:02:35.615Z,55.92
2018-01-23T08:17:56.715Z,55.53
2018-01-23T08:47:38.552Z,55.88
2018-01-23T09:02:37.570Z,55.16
2018-01-23T09:17:37.208Z,54.42
2018-01-23T10:02:36.639Z,52.24
2018-01-23T10:47:36.355Z,48.85
2018-01-23T11:02:36.836Z,48.27
2018-01-23T11:17:35.097Z,48.23
2018-01-23T11:32:34.990Z,48.66
2018-01-23T11:47:43.578Z,48.43
2018-01-23T12:02:38.671Z,48.12
2018-01-23T12:17:39.836Z,48.44
2018-01-23T12:32:35.447Z,49.35
2018-01-23T12:47:34.298Z,49.33
2018-01-23T13:02:35.649Z,49.17
2018-01-23T14:32:40.257Z,54.12
2018-01-23T14:47:35.338Z,55.66
2018-01-23T15:02:38.124Z,57.43
2018-01-23T15:17:38.115Z,58.50
2018-01-23T15:32:34.528Z,59.33
2018-01-23T15:47:38.114Z,59.06
2018-01-23T16:02:34.365Z,59.57
2018-01-23T16:17:39.703Z,59.96
2018-01-23T16:32:42.977Z,60.22
2018-01-23T16:47:39.539Z,61.33
2018-01-23T17:02:37.675Z,61.99
2018-01-23T17:17:35.818Z,62.02
2018-01-23T17:32:35.465Z,65.73
2018-01-23T17:47:34.859Z,66.42
2018-01-23T18:02:36.828Z,66.04
2018-01-23T18:17:37.819Z,65.33
2018-01-23T18:32:38.480Z,64.98
2018-01-23T18:47:56.671Z,64.91
2018-01-23T19:02:36.117Z,64.46
2018-01-23T19:17:37.137Z,63.94
2018-01-23T19:32:34.867Z,65.08
2018-01-23T19:47:36.518Z,65.97
2018-01-23T20:02:36.353Z,66.99
2018-01-23T20:17:35.893Z,67.32
2018-01-23T20:32:48.791Z,67.62
2018-01-23T20:47:34.601Z,67.08
2018-01-23T21:02:36.511Z,66.59
2018-01-23T21:17:42.265Z,66.30
2018-01-23T21:32:46.356Z,66.30
2018-01-23T21:47:44.967Z,66.30
2018-01-23T22:02:34.743Z,66.12
2018-01-23T22:17:36.623Z,65.82
2018-01-23T22:32:36.559Z,65.32
2018-01-23T22:47:34.976Z,65.67
2018-01-23T23:02:35.531Z,65.42
2018-01-23T23:17:34.881Z,65.41
2018-01-23T23:32:34.739Z,65.19
2018-01-23T23:47:34.247Z,64.25
